Hundred, West Virginia
Current Conditions -  °F | °C
As of 10:53 PM on Thursday 20 Nov 2014 (Local Time) from KCKB Reporting Station
Broken Clouds Broken Clouds  
Wind Chill: 18°   Ceiling: 4200
Heat Index: 26°   Visibility: 10mi
Dew Point: 14°   Wind: 7mph
Humidity: 60%   Direction: 270°W
Pressure: 30.17"   Gusts: NA
Location:  39.68°N, 80.46°W
Report Text: KCKB 210353Z 27006KT 10SM BKN042 M03/M10 A3017 RMK AO2 SLP224 T10331100
Loading
Personal Weather Stations






























Interactive Weather Map New forecast layout! Learn more

10-Day Weather Forecast

Advertisements
Track Severe Weather on mobile